createdAt,value
2022-09-06T00:00:15.277Z,2.72
2022-09-06T00:02:44.563Z,3.13
2022-09-06T00:05:12.611Z,2.90
2022-09-06T00:07:39.911Z,3.00
2022-09-06T00:10:07.764Z,2.40
2022-09-06T00:12:35.378Z,2.72
2022-09-06T00:15:03.258Z,3.00
2022-09-06T00:17:31.206Z,3.05
2022-09-06T00:19:58.075Z,2.80
2022-09-06T00:22:25.463Z,2.67
2022-09-06T00:24:52.401Z,3.00
2022-09-06T00:27:19.363Z,3.25
2022-09-06T00:29:46.661Z,3.70
2022-09-06T00:32:14.079Z,3.33
2022-09-06T00:34:41.028Z,3.40
2022-09-06T00:37:08.101Z,3.47
2022-09-06T00:39:35.761Z,3.60
2022-09-06T00:42:03.122Z,3.63
2022-09-06T00:44:29.941Z,3.63
2022-09-06T00:46:56.753Z,3.60
2022-09-06T00:49:31.923Z,3.90
2022-09-06T00:52:06.272Z,3.72
2022-09-06T00:54:36.377Z,2.97
2022-09-06T00:57:03.998Z,3.83
2022-09-06T00:59:36.797Z,3.20
2022-09-06T01:02:05.629Z,3.00
2022-09-06T01:04:33.813Z,4.30
2022-09-06T01:07:16.447Z,3.42
2022-09-06T01:10:09.942Z,4.15
2022-09-06T01:13:06.134Z,4.33
2022-09-06T01:15:39.398Z,3.78
2022-09-06T01:18:27.622Z,4.30
2022-09-06T01:21:38.179Z,3.38
2022-09-06T01:24:42.581Z,4.40
2022-09-06T01:27:44.973Z,3.70
2022-09-06T01:30:14.635Z,4.85
2022-09-06T01:33:04.142Z,5.07
2022-09-06T01:35:57.814Z,4.60
2022-09-06T01:38:25.027Z,4.45
2022-09-06T01:40:52.653Z,4.60
2022-09-06T01:43:29.994Z,4.43
2022-09-06T01:46:07.683Z,6.00
2022-09-06T01:48:53.558Z,6.05
2022-09-06T01:51:56.305Z,5.32
2022-09-06T01:55:01.547Z,5.17
2022-09-06T01:58:07.256Z,5.60
2022-09-06T02:00:45.082Z,5.55
2022-09-06T02:03:36.029Z,5.65
2022-09-06T02:06:18.227Z,5.85
2022-09-06T02:08:49.719Z,5.00
2022-09-06T02:11:17.306Z,5.38
2022-09-06T02:13:54.153Z,6.38
2022-09-06T02:16:26.511Z,5.97
2022-09-06T02:19:13.630Z,6.55
2022-09-06T02:21:45.486Z,6.03
2022-09-06T02:24:21.465Z,6.28
2022-09-06T02:26:49.189Z,6.95
2022-09-06T02:29:18.317Z,6.90
2022-09-06T02:31:54.691Z,6.95
2022-09-06T02:34:22.523Z,6.77
2022-09-06T02:36:49.957Z,8.18
2022-09-06T02:39:19.650Z,7.63
2022-09-06T02:41:48.495Z,8.52
2022-09-06T02:44:16.299Z,8.30
2022-09-06T02:46:43.161Z,8.13
2022-09-06T02:49:10.501Z,8.00
2022-09-06T02:51:39.264Z,7.88
2022-09-06T02:54:07.638Z,8.27
2022-09-06T02:56:38.712Z,8.13
2022-09-06T02:59:05.754Z,7.37
2022-09-06T03:01:33.849Z,8.10
2022-09-06T03:04:00.989Z,8.30
2022-09-06T03:06:31.767Z,8.98
2022-09-06T03:09:00.175Z,8.38
2022-09-06T03:11:28.120Z,8.00
2022-09-06T03:13:54.984Z,8.68
2022-09-06T03:16:25.151Z,8.40
2022-09-06T03:18:52.440Z,9.30
2022-09-06T03:21:19.507Z,8.65
2022-09-06T03:23:46.455Z,8.83
2022-09-06T03:26:13.437Z,8.57
2022-09-06T03:28:40.639Z,9.32
2022-09-06T03:31:10.127Z,8.95
2022-09-06T03:33:37.383Z,9.65
2022-09-06T03:36:05.105Z,8.20
2022-09-06T03:38:31.909Z,9.82
2022-09-06T03:40:58.748Z,9.48
2022-09-06T03:43:28.098Z,9.02
2022-09-06T03:46:00.290Z,8.30
2022-09-06T03:48:29.351Z,8.97
2022-09-06T03:50:58.698Z,8.88
2022-09-06T03:53:27.351Z,9.38
2022-09-06T03:55:55.673Z,8.68
2022-09-06T03:58:23.957Z,10.00
2022-09-06T04:01:00.935Z,9.63
2022-09-06T04:03:27.845Z,10.77
2022-09-06T04:05:54.895Z,9.80
2022-09-06T04:08:21.747Z,11.32
2022-09-06T04:10:55.001Z,11.32
2022-09-06T04:13:23.228Z,10.33
2022-09-06T04:15:50.961Z,9.65
2022-09-06T04:18:18.141Z,11.15
2022-09-06T04:20:47.888Z,10.55
2022-09-06T04:23:15.162Z,9.73
2022-09-06T04:25:48.842Z,10.80
2022-09-06T04:28:18.284Z,10.82
2022-09-06T04:30:51.546Z,11.23
2022-09-06T04:33:18.565Z,11.38
2022-09-06T04:35:49.992Z,11.48
2022-09-06T04:38:17.679Z,11.43
2022-09-06T04:40:44.545Z,12.80
2022-09-06T04:43:11.699Z,12.52
2022-09-06T04:45:38.800Z,12.40
2022-09-06T04:48:05.886Z,12.35
2022-09-06T04:50:32.854Z,12.03
2022-09-06T04:53:07.866Z,11.23
2022-09-06T04:55:35.377Z,12.70
2022-09-06T04:58:03.430Z,11.82
2022-09-06T05:00:32.079Z,13.73
2022-09-06T05:02:59.150Z,12.70
2022-09-06T05:05:26.038Z,13.43
2022-09-06T05:07:54.249Z,13.23
2022-09-06T05:10:22.614Z,12.52
2022-09-06T05:12:51.986Z,13.48
2022-09-06T05:15:19.760Z,13.20
2022-09-06T05:17:46.855Z,14.13
2022-09-06T05:20:13.998Z,14.13
2022-09-06T05:22:41.425Z,12.88
2022-09-06T05:25:09.608Z,14.43
2022-09-06T05:27:39.835Z,11.93
2022-09-06T05:30:07.104Z,13.93
2022-09-06T05:32:34.016Z,14.27
2022-09-06T05:35:00.864Z,13.93
2022-09-06T05:37:27.668Z,13.75
2022-09-06T05:39:54.632Z,12.83
2022-09-06T05:42:21.480Z,13.57
2022-09-06T05:44:48.340Z,14.55
2022-09-06T05:47:15.212Z,13.73
2022-09-06T05:49:42.050Z,13.52
2022-09-06T05:52:08.976Z,13.00
2022-09-06T05:54:35.825Z,12.93
2022-09-06T05:57:02.769Z,13.10
2022-09-06T05:59:29.679Z,13.85
2022-09-06T06:01:56.650Z,13.73
2022-09-06T06:04:23.515Z,13.50
2022-09-06T06:06:50.589Z,13.43
2022-09-06T06:09:18.884Z,14.30
2022-09-06T06:11:45.778Z,12.95
2022-09-06T06:14:12.790Z,15.13
2022-09-06T06:16:39.749Z,12.27
2022-09-06T06:19:06.721Z,13.40
2022-09-06T06:21:34.489Z,14.18
2022-09-06T06:24:03.958Z,13.88
2022-09-06T06:26:33.334Z,13.38
2022-09-06T06:29:03.657Z,10.67
2022-09-06T06:31:32.638Z,12.70
2022-09-06T06:34:03.657Z,11.88
2022-09-06T06:36:33.957Z,11.75
2022-09-06T06:39:02.137Z,11.52
2022-09-06T06:41:31.796Z,12.30
2022-09-06T06:44:00.517Z,10.85
2022-09-06T06:46:29.730Z,12.98
2022-09-06T06:48:56.855Z,11.18
2022-09-06T06:51:29.441Z,11.57
2022-09-06T06:53:59.996Z,10.90
2022-09-06T06:56:33.459Z,11.40
2022-09-06T06:59:02.235Z,11.75
2022-09-06T07:01:31.151Z,11.90
2022-09-06T07:03:58.368Z,11.13
2022-09-06T07:09:12.084Z,9.75
2022-09-06T07:11:39.205Z,11.45
2022-09-06T07:14:06.222Z,11.63
2022-09-06T07:16:33.135Z,12.27
2022-09-06T07:19:00.224Z,12.33
2022-09-06T07:26:30.446Z,10.65
2022-09-06T07:29:00.205Z,11.00
2022-09-06T07:34:16.013Z,10.15
2022-09-06T07:36:42.934Z,10.10
2022-09-06T07:39:09.844Z,10.57
2022-09-06T07:41:36.768Z,10.70
2022-09-06T07:44:03.590Z,9.33
2022-09-06T07:46:30.539Z,10.07
2022-09-06T07:48:57.528Z,10.13
2022-09-06T07:51:24.466Z,9.95
2022-09-06T07:54:12.852Z,10.18
2022-09-06T07:56:42.453Z,9.43
2022-09-06T07:59:09.445Z,9.25
2022-09-06T08:01:40.505Z,9.20
2022-09-06T08:04:17.835Z,8.85
2022-09-06T08:09:37.636Z,8.37
2022-09-06T08:12:07.401Z,8.82
2022-09-06T08:14:35.135Z,9.23
2022-09-06T08:17:02.699Z,8.00
2022-09-06T08:19:29.505Z,8.30
2022-09-06T08:21:56.422Z,7.73
2022-09-06T08:24:23.479Z,7.38
2022-09-06T08:26:50.349Z,7.07
2022-09-06T08:29:17.523Z,8.43
2022-09-06T08:31:45.031Z,7.07
2022-09-06T08:34:15.289Z,7.30
2022-09-06T08:36:42.862Z,7.45
2022-09-06T08:39:10.533Z,6.97
2022-09-06T08:41:40.094Z,6.45
2022-09-06T08:47:19.890Z,6.50
2022-09-06T08:50:00.913Z,5.57
2022-09-06T08:52:49.480Z,7.15
2022-09-06T08:55:49.499Z,5.80
2022-09-06T08:58:33.321Z,6.28
2022-09-06T09:01:10.661Z,5.77
2022-09-06T09:03:39.751Z,6.68
2022-09-06T09:06:10.205Z,5.72
2022-09-06T09:08:37.011Z,5.30
2022-09-06T09:11:07.291Z,6.18
2022-09-06T09:13:56.330Z,4.40
2022-09-06T09:16:24.057Z,4.83
2022-09-06T09:18:57.193Z,4.50
2022-09-06T09:21:30.400Z,5.35
2022-09-06T09:24:02.590Z,5.00
2022-09-06T09:26:37.404Z,5.20
2022-09-06T09:29:09.373Z,4.17
2022-09-06T09:31:53.524Z,4.10
2022-09-06T09:34:36.125Z,5.13
2022-09-06T09:40:28.258Z,5.32
2022-09-06T09:43:08.518Z,5.00
2022-09-06T09:45:35.368Z,5.77
2022-09-06T09:48:29.521Z,5.55
2022-09-06T09:50:56.469Z,5.63
2022-09-06T09:53:24.308Z,5.65
2022-09-06T09:55:58.729Z,4.90
2022-09-06T09:58:33.440Z,5.67
2022-09-06T10:01:11.098Z,5.40
2022-09-06T10:09:33.688Z,4.78
2022-09-06T10:12:01.669Z,5.00
2022-09-06T10:14:49.557Z,5.13
2022-09-06T10:17:26.607Z,5.50
2022-09-06T10:19:54.032Z,5.35
2022-09-06T10:22:30.029Z,6.20
2022-09-06T10:25:15.053Z,5.60
2022-09-06T10:28:10.885Z,5.50
2022-09-06T10:31:16.617Z,5.53
2022-09-06T10:33:49.556Z,6.28
2022-09-06T10:36:29.848Z,6.43
2022-09-06T10:39:03.967Z,5.72
2022-09-06T10:41:46.817Z,5.95
2022-09-06T10:44:32.169Z,7.23
2022-09-06T10:47:10.558Z,6.67
2022-09-06T10:49:42.926Z,7.28
2022-09-06T10:52:15.256Z,6.95
2022-09-06T10:54:42.257Z,6.20
2022-09-06T11:00:14.372Z,7.07
2022-09-06T11:06:11.434Z,6.80
2022-09-06T11:11:20.811Z,8.15
2022-09-06T11:13:47.846Z,7.30
2022-09-06T11:16:29.502Z,8.20
2022-09-06T11:19:04.816Z,7.40
2022-09-06T11:21:49.540Z,7.95
2022-09-06T11:24:22.768Z,8.25
2022-09-06T11:27:06.242Z,8.23
2022-09-06T11:29:34.831Z,8.10
2022-09-06T11:32:20.341Z,9.40
2022-09-06T11:34:59.208Z,8.02
2022-09-06T11:37:35.293Z,9.43
2022-09-06T11:42:52.232Z,9.93
2022-09-06T11:45:39.258Z,7.37
2022-09-06T11:48:24.227Z,9.53
2022-09-06T11:50:54.212Z,10.55
2022-09-06T11:53:29.909Z,9.35
2022-09-06T11:56:02.703Z,10.52
2022-09-06T11:58:53.807Z,9.55
2022-09-06T12:01:20.828Z,7.43
2022-09-06T12:06:43.707Z,7.45
2022-09-06T12:09:33.980Z,7.20
2022-09-06T12:12:01.547Z,6.50
2022-09-06T12:14:40.275Z,6.70
2022-09-06T12:17:18.267Z,6.43
2022-09-06T12:19:49.626Z,7.80
2022-09-06T12:22:35.955Z,6.78
2022-09-06T12:25:40.631Z,6.35
2022-09-06T12:28:25.887Z,6.20
2022-09-06T12:30:55.765Z,7.32
2022-09-06T12:33:39.312Z,6.87
2022-09-06T12:36:22.605Z,7.23
2022-09-06T12:39:01.509Z,6.47
2022-09-06T12:41:32.232Z,7.93
2022-09-06T12:44:03.513Z,7.80
2022-09-06T12:46:32.261Z,5.30
2022-09-06T12:49:08.077Z,5.50
2022-09-06T12:51:36.686Z,4.90
2022-09-06T12:54:15.352Z,5.50
2022-09-06T12:56:42.249Z,7.00
2022-09-06T12:59:21.058Z,5.63
2022-09-06T13:02:08.387Z,5.65
2022-09-06T13:05:01.234Z,6.47
2022-09-06T13:07:29.503Z,6.37
2022-09-06T13:09:58.052Z,6.80
2022-09-06T13:12:48.970Z,6.75
2022-09-06T13:15:25.157Z,5.43
2022-09-06T13:17:54.156Z,6.80
2022-09-06T13:20:26.462Z,5.70
2022-09-06T13:23:04.947Z,6.10
2022-09-06T13:25:31.770Z,5.40
2022-09-06T13:27:59.070Z,6.45
2022-09-06T13:30:30.270Z,5.53
2022-09-06T13:32:57.211Z,6.38
2022-09-06T13:35:26.464Z,5.33
2022-09-06T13:37:53.465Z,4.97
2022-09-06T13:43:33.452Z,5.93
2022-09-06T13:46:11.695Z,6.80
2022-09-06T13:48:44.554Z,5.50
2022-09-06T13:51:12.144Z,4.63
2022-09-06T13:53:39.131Z,4.68
2022-09-06T13:56:08.489Z,4.30
2022-09-06T13:58:36.372Z,3.65
2022-09-06T14:01:08.608Z,4.50
2022-09-06T14:03:37.885Z,3.83
2022-09-06T14:06:04.798Z,4.57
2022-09-06T14:08:49.676Z,4.80
2022-09-06T14:11:22.392Z,5.38
2022-09-06T14:13:49.696Z,4.63
2022-09-06T14:16:16.569Z,3.50
2022-09-06T14:18:43.968Z,3.03
2022-09-06T14:21:11.010Z,3.10
2022-09-06T14:23:37.897Z,4.75
2022-09-06T14:26:05.537Z,5.60
2022-09-06T14:28:34.102Z,5.07
2022-09-06T14:31:28.328Z,4.70
2022-09-06T14:33:57.139Z,4.60
2022-09-06T14:36:26.612Z,3.90
2022-09-06T14:38:57.821Z,3.78
2022-09-06T14:41:25.435Z,3.67
2022-09-06T14:43:56.137Z,3.90
2022-09-06T14:46:25.011Z,4.30
2022-09-06T14:49:01.701Z,3.20
2022-09-06T14:51:30.326Z,3.37
2022-09-06T14:54:02.348Z,3.25
2022-09-06T14:56:30.436Z,3.20
2022-09-06T14:58:59.777Z,2.70
2022-09-06T15:01:37.137Z,2.58
2022-09-06T15:04:07.913Z,3.23
2022-09-06T15:06:36.898Z,2.60
2022-09-06T15:09:07.333Z,1.85
2022-09-06T15:11:46.578Z,2.47
2022-09-06T15:14:17.194Z,2.30
2022-09-06T15:16:45.863Z,2.50
2022-09-06T15:19:14.519Z,2.53
2022-09-06T15:21:42.891Z,2.00
2022-09-06T15:24:12.230Z,2.65
2022-09-06T15:26:43.729Z,2.50
2022-09-06T15:29:12.744Z,2.20
2022-09-06T15:31:41.655Z,2.63
2022-09-06T15:34:09.928Z,1.98
2022-09-06T15:36:38.069Z,2.07
2022-09-06T15:39:06.021Z,2.05
2022-09-06T15:41:37.557Z,2.15
2022-09-06T15:44:10.558Z,2.75
2022-09-06T15:46:50.437Z,2.22
2022-09-06T15:49:27.524Z,2.20
2022-09-06T15:52:00.896Z,3.00
2022-09-06T15:54:47.934Z,3.17
2022-09-06T15:57:16.308Z,2.45
2022-09-06T15:59:44.093Z,2.30
2022-09-06T16:02:11.798Z,2.70
2022-09-06T16:04:39.090Z,2.90
2022-09-06T16:07:06.898Z,2.80
2022-09-06T16:09:34.041Z,2.80
2022-09-06T16:12:01.157Z,2.65
2022-09-06T16:14:29.011Z,2.50
2022-09-06T16:16:58.666Z,2.75
2022-09-06T16:19:28.533Z,2.17
2022-09-06T16:21:55.974Z,2.60
2022-09-06T16:24:23.524Z,2.90
2022-09-06T16:26:50.836Z,2.42
2022-09-06T16:29:19.238Z,2.72
2022-09-06T16:31:47.071Z,2.05
2022-09-06T16:34:17.929Z,2.15
2022-09-06T16:36:45.078Z,1.90
2022-09-06T16:39:14.831Z,2.50
2022-09-06T16:41:47.097Z,2.20
2022-09-06T16:44:18.958Z,1.95
2022-09-06T16:46:48.977Z,2.22
2022-09-06T16:49:17.510Z,2.55
2022-09-06T16:51:48.153Z,2.13
2022-09-06T16:54:16.652Z,2.17
2022-09-06T16:56:44.869Z,2.90
2022-09-06T16:59:19.443Z,2.95
2022-09-06T17:01:47.441Z,2.28
2022-09-06T17:04:19.086Z,2.78
2022-09-06T17:07:03.601Z,2.03
2022-09-06T17:09:34.783Z,2.00
2022-09-06T17:12:03.519Z,1.92
2022-09-06T17:14:31.328Z,2.53
2022-09-06T17:17:07.593Z,2.72
2022-09-06T17:19:40.090Z,2.42
2022-09-06T17:22:15.099Z,2.33
2022-09-06T17:24:45.084Z,1.90
2022-09-06T17:27:22.805Z,3.08
2022-09-06T17:29:50.389Z,3.13
2022-09-06T17:32:17.598Z,3.25
2022-09-06T17:34:44.585Z,2.57
2022-09-06T17:37:20.268Z,2.60
2022-09-06T17:39:56.023Z,3.10
2022-09-06T17:42:26.200Z,3.10
2022-09-06T17:44:54.232Z,3.08
2022-09-06T17:47:24.313Z,2.65
2022-09-06T17:50:06.998Z,3.00
2022-09-06T17:52:35.595Z,2.50
2022-09-06T17:55:07.627Z,2.80
2022-09-06T17:57:37.639Z,3.00
2022-09-06T18:00:06.001Z,2.55
2022-09-06T18:02:43.801Z,3.00
2022-09-06T18:05:14.663Z,2.67
2022-09-06T18:07:43.421Z,3.83
2022-09-06T18:10:17.761Z,3.50
2022-09-06T18:12:48.216Z,3.42
2022-09-06T18:15:15.685Z,2.75
2022-09-06T18:17:42.955Z,2.70
2022-09-06T18:20:10.531Z,3.03
2022-09-06T18:22:39.852Z,2.65
2022-09-06T18:25:07.658Z,2.78
2022-09-06T18:27:34.618Z,2.42
2022-09-06T18:30:01.675Z,2.70
2022-09-06T18:32:28.733Z,2.50
2022-09-06T18:34:56.715Z,2.42
2022-09-06T18:37:23.915Z,2.65
2022-09-06T18:39:51.307Z,2.67
2022-09-06T18:42:18.876Z,2.67
2022-09-06T18:44:46.016Z,2.15
2022-09-06T18:47:13.854Z,2.17
2022-09-06T18:49:44.146Z,2.35
2022-09-06T18:52:11.678Z,2.20
2022-09-06T18:54:39.625Z,1.90
2022-09-06T18:57:07.184Z,1.58
2022-09-06T18:59:34.230Z,2.30
2022-09-06T19:02:01.430Z,3.28
2022-09-06T19:04:28.663Z,2.50
2022-09-06T19:06:58.434Z,2.10
2022-09-06T19:09:25.387Z,2.45
2022-09-06T19:11:53.144Z,2.40
2022-09-06T19:14:20.534Z,2.92
2022-09-06T19:16:48.726Z,2.50
2022-09-06T19:19:15.870Z,2.47
2022-09-06T19:21:44.108Z,2.50
2022-09-06T19:24:15.669Z,2.97
2022-09-06T19:26:46.621Z,2.97
2022-09-06T19:29:18.113Z,2.80
2022-09-06T19:31:46.221Z,2.57
2022-09-06T19:34:39.062Z,2.97
2022-09-06T19:37:06.480Z,2.92
2022-09-06T19:39:37.176Z,2.65
2022-09-06T19:42:06.942Z,3.30
2022-09-06T19:44:33.879Z,2.73
2022-09-06T19:47:00.870Z,2.90
2022-09-06T19:49:27.972Z,3.67
2022-09-06T19:51:54.862Z,3.58
2022-09-06T19:54:21.842Z,3.47
2022-09-06T19:56:51.168Z,3.83
2022-09-06T19:59:18.352Z,4.40
2022-09-06T20:01:46.753Z,3.50
2022-09-06T20:04:14.445Z,4.22
2022-09-06T20:09:26.107Z,3.60
2022-09-06T20:11:53.293Z,3.57
2022-09-06T20:14:21.361Z,4.40
2022-09-06T20:16:48.308Z,3.47
2022-09-06T20:19:16.374Z,3.00
2022-09-06T20:21:43.414Z,3.10
2022-09-06T20:24:10.680Z,3.30
2022-09-06T20:26:37.827Z,3.80
2022-09-06T20:29:05.095Z,3.97
2022-09-06T20:31:33.381Z,3.97
2022-09-06T20:34:02.183Z,4.18
2022-09-06T20:36:30.134Z,4.03
2022-09-06T20:38:57.189Z,4.55
2022-09-06T20:41:25.755Z,4.63
2022-09-06T20:43:54.962Z,4.93
2022-09-06T20:46:24.484Z,4.93
2022-09-06T20:48:52.288Z,5.47
2022-09-06T20:51:21.541Z,4.95
2022-09-06T20:53:53.455Z,5.80
2022-09-06T20:56:24.203Z,7.25
2022-09-06T20:58:54.008Z,6.68
2022-09-06T21:01:23.886Z,7.17
2022-09-06T21:03:53.553Z,6.82
2022-09-06T21:06:21.422Z,6.20
2022-09-06T21:08:49.429Z,7.18
2022-09-06T21:11:17.115Z,6.10
2022-09-06T21:13:44.046Z,6.07
2022-09-06T21:16:11.191Z,6.50
2022-09-06T21:18:38.092Z,6.65
2022-09-06T21:21:08.625Z,6.63
2022-09-06T21:23:37.842Z,6.97
2022-09-06T21:26:10.494Z,6.45
2022-09-06T21:28:39.882Z,6.43
2022-09-06T21:31:08.525Z,7.28
2022-09-06T21:33:44.234Z,7.68
2022-09-06T21:36:13.715Z,6.80
2022-09-06T21:38:42.889Z,7.65
2022-09-06T21:41:10.814Z,6.63
2022-09-06T21:43:37.747Z,7.45
2022-09-06T21:46:07.706Z,6.43
2022-09-06T21:48:39.199Z,8.25
2022-09-06T21:51:13.033Z,7.68
2022-09-06T21:53:40.435Z,8.43
2022-09-06T21:56:07.363Z,8.55
2022-09-06T21:58:34.348Z,7.70
2022-09-06T22:01:02.242Z,9.00
2022-09-06T22:03:35.174Z,8.18
2022-09-06T22:06:29.341Z,6.00
2022-09-06T22:08:57.938Z,7.00
2022-09-06T22:11:29.114Z,7.85
2022-09-06T22:14:04.171Z,6.78
2022-09-06T22:16:33.089Z,5.75
2022-09-06T22:19:00.078Z,4.27
2022-09-06T22:21:27.284Z,4.93
2022-09-06T22:24:00.881Z,5.05
2022-09-06T22:26:30.201Z,4.45
2022-09-06T22:29:02.247Z,4.55
2022-09-06T22:31:31.438Z,4.40
2022-09-06T22:33:58.940Z,4.10
2022-09-06T22:36:26.907Z,4.10
2022-09-06T22:38:57.379Z,3.88
2022-09-06T22:41:27.131Z,3.80
2022-09-06T22:43:54.525Z,4.00
2022-09-06T22:46:21.549Z,4.57
2022-09-06T22:48:49.289Z,5.28
2022-09-06T22:51:16.434Z,6.50
2022-09-06T22:53:44.241Z,8.20
2022-09-06T22:56:11.208Z,10.73
2022-09-06T22:58:38.369Z,9.45
2022-09-06T23:01:10.858Z,10.65
2022-09-06T23:03:38.204Z,10.90
2022-09-06T23:06:05.713Z,13.60
2022-09-06T23:08:35.331Z,10.40
2022-09-06T23:11:07.417Z,11.35
2022-09-06T23:13:35.008Z,12.15
2022-09-06T23:16:04.320Z,12.07
2022-09-06T23:18:31.301Z,11.38
2022-09-06T23:21:11.043Z,10.43
2022-09-06T23:23:38.555Z,10.13
2022-09-06T23:26:10.218Z,9.55
2022-09-06T23:28:38.320Z,8.48
2022-09-06T23:31:07.315Z,7.65
2022-09-06T23:33:36.399Z,7.13
2022-09-06T23:36:09.132Z,8.10
2022-09-06T23:38:37.872Z,6.53
2022-09-06T23:41:05.723Z,6.97
2022-09-06T23:43:33.149Z,7.28
2022-09-06T23:46:00.376Z,8.17
2022-09-06T23:48:27.474Z,7.40
2022-09-06T23:50:54.473Z,5.93
2022-09-06T23:53:21.586Z,6.97
2022-09-06T23:55:48.661Z,6.43
2022-09-06T23:58:15.919Z,6.67
